Etusivu
METAR-TAF:

METAR-TAF

Lentoasemat :

Helsinki-Vantaan lentoasema

Helsinki, Suomi

Leveyspiiri: 60-19N, Pituuspiiri: 024-58E, korkeus merenpinnasta: 51 m

Tämänhetkinen sää

Tämä raportti tehtiin 18 minuuttia sitten, kello 21.50 UTC
Tuuli 5 kn lännestä
Lämpötila 1°C
Kosteus 93%
Ilmanpaine 1013 hPa
Näkyvyys 10 km tai enemmän
Hajonneita pilviä 800 ft:n korkeudessa

METAR: EFHK 242150Z 26005KT 9999 BKN008 01/00 Q1013 BECMG SCT012

Aika: 00:08 (22:08 UTC)

Sääennuste

Tämä raportti tehtiin 1 tunti ja 43 minuuttia sitten, kello 20.25 UTC
Ennuste voimassa 24. päivästä klo 21 UTC - 25. päivään klo 21 UTC
Tuuli 11 kn lännestä
Näkyvyys 10 km tai enemmän
Hajonneita pilviä 800 ft:n korkeudessa
Tulossa
24. päivästä klo 21 UTC - 24. päivään klo 23 UTC
Hajanaisia pilviä 1200 ft:n korkeudessa
Tulossa
25. päivästä klo 09 UTC - 25. päivään klo 11 UTC
Tuuli 10 kn pohjoisen/luoteesta

TAF: EFHK 242025Z 2421/2521 27011KT 9999 BKN008 BECMG 2421/2423 SCT012 BECMG 2509/2511 33010KT

Säähavainnot ja -ennusteet yli 4000 lentoasemalta (METAR- ja TAF-raportit).

Käytössä olevat sääasemat on merkitty karttaan keltaisilla ja punaisilla pisteillä.

Aseta hiiri pisteen päälle nähdäksesi sääaseman nimen.

Klikkaa sitten nähdäksesi säähavainnot ja -ennusteet.

Kartan vaihtaminen: klikkaa mustalla rastilla varustettuja vihreitä pisteitä, niin voit zoomata sisään; viivalla varustettua vihreää pistettä, niin voit zoomata ulos tai vihreitä nuolia, niin pääset viereisille kartoille.


METAR-TAF: